sensor_id;sensor_type;location;lat;lon;timestamp;temperature;humidity
38866;DHT22;24612;48.984;8.394;2022-07-30T00:00:54;21.60;99.90
38866;DHT22;24612;48.984;8.394;2022-07-30T00:03:22;21.50;99.90
38866;DHT22;24612;48.984;8.394;2022-07-30T00:05:52;21.40;99.90
38866;DHT22;24612;48.984;8.394;2022-07-30T00:08:21;21.30;99.90
38866;DHT22;24612;48.984;8.394;2022-07-30T00:10:49;21.20;99.90
38866;DHT22;24612;48.984;8.394;2022-07-30T00:13:18;21.20;99.90
38866;DHT22;24612;48.984;8.394;2022-07-30T00:15:46;21.10;99.90
38866;DHT22;24612;48.984;8.394;2022-07-30T00:18:15;21.00;99.90
38866;DHT22;24612;48.984;8.394;2022-07-30T00:20:43;21.00;99.90
38866;DHT22;24612;48.984;8.394;2022-07-30T00:23:11;20.90;99.90
38866;DHT22;24612;48.984;8.394;2022-07-30T00:25:39;21.00;99.90
38866;DHT22;24612;48.984;8.394;2022-07-30T00:28:07;21.00;99.90
38866;DHT22;24612;48.984;8.394;2022-07-30T00:30:35;20.90;99.90
38866;DHT22;24612;48.984;8.394;2022-07-30T00:33:04;21.00;99.90
38866;DHT22;24612;48.984;8.394;2022-07-30T00:35:34;21.00;99.90
38866;DHT22;24612;48.984;8.394;2022-07-30T00:38:02;21.00;99.90
38866;DHT22;24612;48.984;8.394;2022-07-30T00:40:30;21.00;99.90
38866;DHT22;24612;48.984;8.394;2022-07-30T00:42:58;20.90;99.90
38866;DHT22;24612;48.984;8.394;2022-07-30T00:45:26;20.90;99.90
38866;DHT22;24612;48.984;8.394;2022-07-30T00:47:54;20.80;99.90
38866;DHT22;24612;48.984;8.394;2022-07-30T00:50:22;20.70;99.90
38866;DHT22;24612;48.984;8.394;2022-07-30T00:52:51;20.70;99.90
38866;DHT22;24612;48.984;8.394;2022-07-30T00:55:19;20.50;99.90
38866;DHT22;24612;48.984;8.394;2022-07-30T00:57:47;20.40;99.90
38866;DHT22;24612;48.984;8.394;2022-07-30T01:00:16;20.30;99.90
38866;DHT22;24612;48.984;8.394;2022-07-30T01:02:45;20.20;99.90
38866;DHT22;24612;48.984;8.394;2022-07-30T01:05:13;20.20;99.90
38866;DHT22;24612;48.984;8.394;2022-07-30T01:07:41;20.20;99.90
38866;DHT22;24612;48.984;8.394;2022-07-30T01:10:12;20.20;99.90
38866;DHT22;24612;48.984;8.394;2022-07-30T01:12:41;20.20;99.90
38866;DHT22;24612;48.984;8.394;2022-07-30T01:15:10;20.10;99.90
38866;DHT22;24612;48.984;8.394;2022-07-30T01:17:38;20.00;99.90
38866;DHT22;24612;48.984;8.394;2022-07-30T01:20:10;20.00;99.90
38866;DHT22;24612;48.984;8.394;2022-07-30T01:22:46;19.80;99.90
38866;DHT22;24612;48.984;8.394;2022-07-30T01:25:27;19.90;99.90
38866;DHT22;24612;48.984;8.394;2022-07-30T01:28:02;19.90;99.90
38866;DHT22;24612;48.984;8.394;2022-07-30T01:30:35;19.90;99.90
38866;DHT22;24612;48.984;8.394;2022-07-30T01:33:03;19.90;99.90
38866;DHT22;24612;48.984;8.394;2022-07-30T01:35:33;19.80;99.90
38866;DHT22;24612;48.984;8.394;2022-07-30T01:38:03;19.60;99.90
38866;DHT22;24612;48.984;8.394;2022-07-30T01:40:33;19.50;99.90
38866;DHT22;24612;48.984;8.394;2022-07-30T01:43:04;19.40;99.90
38866;DHT22;24612;48.984;8.394;2022-07-30T01:45:33;19.30;99.90
38866;DHT22;24612;48.984;8.394;2022-07-30T01:48:04;19.20;99.90
38866;DHT22;24612;48.984;8.394;2022-07-30T01:50:33;19.10;99.90
38866;DHT22;24612;48.984;8.394;2022-07-30T01:53:02;19.00;99.90
38866;DHT22;24612;48.984;8.394;2022-07-30T01:55:34;19.10;99.90
38866;DHT22;24612;48.984;8.394;2022-07-30T01:58:05;19.00;99.90
38866;DHT22;24612;48.984;8.394;2022-07-30T02:00:38;18.90;99.90
38866;DHT22;24612;48.984;8.394;2022-07-30T02:03:06;18.90;99.90
38866;DHT22;24612;48.984;8.394;2022-07-30T02:05:36;18.90;99.90
38866;DHT22;24612;48.984;8.394;2022-07-30T02:08:10;18.80;99.90
38866;DHT22;24612;48.984;8.394;2022-07-30T02:10:43;18.80;99.90
38866;DHT22;24612;48.984;8.394;2022-07-30T02:13:16;18.80;99.90
38866;DHT22;24612;48.984;8.394;2022-07-30T02:15:51;18.80;99.90
38866;DHT22;24612;48.984;8.394;2022-07-30T02:18:28;18.70;99.90
38866;DHT22;24612;48.984;8.394;2022-07-30T02:21:00;18.70;99.90
38866;DHT22;24612;48.984;8.394;2022-07-30T02:23:30;18.70;99.90
38866;DHT22;24612;48.984;8.394;2022-07-30T02:26:00;18.60;99.90
38866;DHT22;24612;48.984;8.394;2022-07-30T02:28:36;18.60;99.90
38866;DHT22;24612;48.984;8.394;2022-07-30T02:31:07;18.70;99.90
38866;DHT22;24612;48.984;8.394;2022-07-30T02:33:39;18.80;99.90
38866;DHT22;24612;48.984;8.394;2022-07-30T02:36:08;18.80;99.90
38866;DHT22;24612;48.984;8.394;2022-07-30T02:38:38;18.70;99.90
38866;DHT22;24612;48.984;8.394;2022-07-30T02:41:08;18.80;99.90
38866;DHT22;24612;48.984;8.394;2022-07-30T02:43:41;18.70;99.90
38866;DHT22;24612;48.984;8.394;2022-07-30T02:46:12;18.70;99.90
38866;DHT22;24612;48.984;8.394;2022-07-30T02:48:41;18.60;99.90
38866;DHT22;24612;48.984;8.394;2022-07-30T02:51:11;18.50;99.90
38866;DHT22;24612;48.984;8.394;2022-07-30T02:53:43;18.40;99.90
38866;DHT22;24612;48.984;8.394;2022-07-30T02:56:13;18.30;99.90
38866;DHT22;24612;48.984;8.394;2022-07-30T02:58:44;18.20;99.90
38866;DHT22;24612;48.984;8.394;2022-07-30T03:01:15;18.20;99.90
38866;DHT22;24612;48.984;8.394;2022-07-30T03:03:45;18.20;99.90
38866;DHT22;24612;48.984;8.394;2022-07-30T03:06:15;18.20;99.90
38866;DHT22;24612;48.984;8.394;2022-07-30T03:08:44;18.30;99.90
38866;DHT22;24612;48.984;8.394;2022-07-30T03:11:13;18.20;99.90
38866;DHT22;24612;48.984;8.394;2022-07-30T03:13:44;18.20;99.90
38866;DHT22;24612;48.984;8.394;2022-07-30T03:16:12;18.10;99.90
38866;DHT22;24612;48.984;8.394;2022-07-30T03:18:41;18.00;99.90
38866;DHT22;24612;48.984;8.394;2022-07-30T03:21:11;17.90;99.90
38866;DHT22;24612;48.984;8.394;2022-07-30T03:23:41;17.90;99.90
38866;DHT22;24612;48.984;8.394;2022-07-30T03:26:11;17.90;99.90
38866;DHT22;24612;48.984;8.394;2022-07-30T03:28:41;17.80;99.90
38866;DHT22;24612;48.984;8.394;2022-07-30T03:31:11;17.90;99.90
38866;DHT22;24612;48.984;8.394;2022-07-30T03:33:41;18.00;99.90
38866;DHT22;24612;48.984;8.394;2022-07-30T03:36:12;18.00;99.90
38866;DHT22;24612;48.984;8.394;2022-07-30T03:38:41;18.00;99.90
38866;DHT22;24612;48.984;8.394;2022-07-30T03:41:10;18.00;99.90
38866;DHT22;24612;48.984;8.394;2022-07-30T03:43:39;18.10;99.90
38866;DHT22;24612;48.984;8.394;2022-07-30T03:46:09;18.10;99.90
38866;DHT22;24612;48.984;8.394;2022-07-30T03:48:39;18.00;99.90
38866;DHT22;24612;48.984;8.394;2022-07-30T03:51:08;18.00;99.90
38866;DHT22;24612;48.984;8.394;2022-07-30T03:53:39;18.00;99.90
38866;DHT22;24612;48.984;8.394;2022-07-30T03:56:07;18.00;99.90
38866;DHT22;24612;48.984;8.394;2022-07-30T03:58:36;18.00;99.90
38866;DHT22;24612;48.984;8.394;2022-07-30T04:01:05;18.10;99.90
38866;DHT22;24612;48.984;8.394;2022-07-30T04:03:33;18.10;99.90
38866;DHT22;24612;48.984;8.394;2022-07-30T04:06:02;18.20;99.90
38866;DHT22;24612;48.984;8.394;2022-07-30T04:08:31;18.20;99.90
38866;DHT22;24612;48.984;8.394;2022-07-30T04:10:59;18.20;99.90
38866;DHT22;24612;48.984;8.394;2022-07-30T04:13:27;18.20;99.90
38866;DHT22;24612;48.984;8.394;2022-07-30T04:16:00;18.20;99.90
38866;DHT22;24612;48.984;8.394;2022-07-30T04:18:31;18.10;99.90
38866;DHT22;24612;48.984;8.394;2022-07-30T04:21:04;18.00;99.90
38866;DHT22;24612;48.984;8.394;2022-07-30T04:23:34;18.00;99.90
38866;DHT22;24612;48.984;8.394;2022-07-30T04:26:02;18.00;99.90
38866;DHT22;24612;48.984;8.394;2022-07-30T04:28:30;18.00;99.90
38866;DHT22;24612;48.984;8.394;2022-07-30T04:30:59;18.00;99.90
38866;DHT22;24612;48.984;8.394;2022-07-30T04:33:28;18.00;99.90
38866;DHT22;24612;48.984;8.394;2022-07-30T04:35:56;18.10;99.90
38866;DHT22;24612;48.984;8.394;2022-07-30T04:38:26;18.20;99.90
38866;DHT22;24612;48.984;8.394;2022-07-30T04:40:54;18.20;99.90
38866;DHT22;24612;48.984;8.394;2022-07-30T04:43:22;18.20;99.90
38866;DHT22;24612;48.984;8.394;2022-07-30T04:45:50;18.30;99.90
38866;DHT22;24612;48.984;8.394;2022-07-30T04:48:18;18.30;99.90
38866;DHT22;24612;48.984;8.394;2022-07-30T04:50:48;18.30;99.90
38866;DHT22;24612;48.984;8.394;2022-07-30T04:53:19;18.30;99.90
38866;DHT22;24612;48.984;8.394;2022-07-30T04:55:50;18.40;99.90
38866;DHT22;24612;48.984;8.394;2022-07-30T04:58:19;18.50;99.90
38866;DHT22;24612;48.984;8.394;2022-07-30T05:00:50;18.60;99.90
38866;DHT22;24612;48.984;8.394;2022-07-30T05:03:19;18.60;99.90
38866;DHT22;24612;48.984;8.394;2022-07-30T05:05:48;18.70;99.90
38866;DHT22;24612;48.984;8.394;2022-07-30T05:08:18;18.80;99.90
38866;DHT22;24612;48.984;8.394;2022-07-30T05:10:47;18.90;99.90
38866;DHT22;24612;48.984;8.394;2022-07-30T05:13:16;19.10;99.90
38866;DHT22;24612;48.984;8.394;2022-07-30T05:15:44;19.20;99.90
38866;DHT22;24612;48.984;8.394;2022-07-30T05:18:12;19.30;99.90
38866;DHT22;24612;48.984;8.394;2022-07-30T05:20:40;19.40;99.90
38866;DHT22;24612;48.984;8.394;2022-07-30T05:23:08;19.50;99.90
38866;DHT22;24612;48.984;8.394;2022-07-30T05:25:36;19.60;99.90
38866;DHT22;24612;48.984;8.394;2022-07-30T05:28:04;19.80;99.90
38866;DHT22;24612;48.984;8.394;2022-07-30T05:30:34;19.90;99.90
38866;DHT22;24612;48.984;8.394;2022-07-30T05:33:02;20.00;99.90
38866;DHT22;24612;48.984;8.394;2022-07-30T05:35:30;20.10;99.90
38866;DHT22;24612;48.984;8.394;2022-07-30T05:37:58;20.20;99.90
38866;DHT22;24612;48.984;8.394;2022-07-30T05:40:26;20.30;99.90
38866;DHT22;24612;48.984;8.394;2022-07-30T05:42:54;20.30;99.90
38866;DHT22;24612;48.984;8.394;2022-07-30T05:45:22;20.40;99.90
38866;DHT22;24612;48.984;8.394;2022-07-30T05:47:52;20.60;99.90
38866;DHT22;24612;48.984;8.394;2022-07-30T05:50:20;20.70;99.90
38866;DHT22;24612;48.984;8.394;2022-07-30T05:52:48;20.80;99.90
38866;DHT22;24612;48.984;8.394;2022-07-30T05:55:16;20.90;99.90
38866;DHT22;24612;48.984;8.394;2022-07-30T05:57:44;21.00;99.90
38866;DHT22;24612;48.984;8.394;2022-07-30T06:00:12;21.10;99.90
38866;DHT22;24612;48.984;8.394;2022-07-30T06:02:41;21.20;99.90
38866;DHT22;24612;48.984;8.394;2022-07-30T06:05:11;21.30;99.90
38866;DHT22;24612;48.984;8.394;2022-07-30T06:07:39;21.40;99.90
38866;DHT22;24612;48.984;8.394;2022-07-30T06:10:07;21.60;99.90
38866;DHT22;24612;48.984;8.394;2022-07-30T06:12:35;21.70;99.90
38866;DHT22;24612;48.984;8.394;2022-07-30T06:15:04;21.80;99.90
38866;DHT22;24612;48.984;8.394;2022-07-30T06:17:32;21.90;99.90
38866;DHT22;24612;48.984;8.394;2022-07-30T06:20:00;22.10;99.90
38866;DHT22;24612;48.984;8.394;2022-07-30T06:22:29;22.30;99.90
38866;DHT22;24612;48.984;8.394;2022-07-30T06:24:57;22.60;99.90
38866;DHT22;24612;48.984;8.394;2022-07-30T06:27:25;22.90;99.90
38866;DHT22;24612;48.984;8.394;2022-07-30T06:29:56;23.30;99.90
38866;DHT22;24612;48.984;8.394;2022-07-30T06:32:24;23.50;99.90
38866;DHT22;24612;48.984;8.394;2022-07-30T06:34:52;23.70;99.90
38866;DHT22;24612;48.984;8.394;2022-07-30T06:37:25;23.80;99.90
38866;DHT22;24612;48.984;8.394;2022-07-30T06:39:54;24.00;99.90
38866;DHT22;24612;48.984;8.394;2022-07-30T06:42:24;23.90;99.90
38866;DHT22;24612;48.984;8.394;2022-07-30T06:44:52;24.00;99.90
38866;DHT22;24612;48.984;8.394;2022-07-30T06:47:20;24.20;99.90
38866;DHT22;24612;48.984;8.394;2022-07-30T06:49:51;24.50;99.90
38866;DHT22;24612;48.984;8.394;2022-07-30T06:52:20;24.80;99.90
38866;DHT22;24612;48.984;8.394;2022-07-30T06:54:48;24.90;99.90
38866;DHT22;24612;48.984;8.394;2022-07-30T06:57:17;24.90;99.90
38866;DHT22;24612;48.984;8.394;2022-07-30T06:59:45;25.00;99.90
38866;DHT22;24612;48.984;8.394;2022-07-30T07:02:13;25.00;99.90
38866;DHT22;24612;48.984;8.394;2022-07-30T07:04:41;25.00;99.90
38866;DHT22;24612;48.984;8.394;2022-07-30T07:07:09;25.00;99.90
38866;DHT22;24612;48.984;8.394;2022-07-30T07:09:38;25.00;99.90
38866;DHT22;24612;48.984;8.394;2022-07-30T07:12:06;25.00;99.90
38866;DHT22;24612;48.984;8.394;2022-07-30T07:14:36;25.00;99.90
38866;DHT22;24612;48.984;8.394;2022-07-30T07:17:04;25.10;99.90
38866;DHT22;24612;48.984;8.394;2022-07-30T07:19:32;25.50;99.90
38866;DHT22;24612;48.984;8.394;2022-07-30T07:22:00;26.70;99.90
38866;DHT22;24612;48.984;8.394;2022-07-30T07:24:28;27.90;97.80
38866;DHT22;24612;48.984;8.394;2022-07-30T07:26:56;28.90;94.60
38866;DHT22;24612;48.984;8.394;2022-07-30T07:29:24;30.00;92.30
38866;DHT22;24612;48.984;8.394;2022-07-30T07:31:54;31.20;92.40
38866;DHT22;24612;48.984;8.394;2022-07-30T07:34:22;32.70;87.10
38866;DHT22;24612;48.984;8.394;2022-07-30T07:36:50;34.20;79.40
38866;DHT22;24612;48.984;8.394;2022-07-30T07:39:18;35.30;75.10
38866;DHT22;24612;48.984;8.394;2022-07-30T07:41:46;36.10;71.80
38866;DHT22;24612;48.984;8.394;2022-07-30T07:44:15;36.60;69.40
38866;DHT22;24612;48.984;8.394;2022-07-30T07:46:43;36.30;65.90
38866;DHT22;24612;48.984;8.394;2022-07-30T07:49:12;36.70;64.90
38866;DHT22;24612;48.984;8.394;2022-07-30T07:51:40;37.30;65.90
38866;DHT22;24612;48.984;8.394;2022-07-30T07:54:08;37.60;63.80
38866;DHT22;24612;48.984;8.394;2022-07-30T07:56:45;38.00;65.00
38866;DHT22;24612;48.984;8.394;2022-07-30T07:59:14;38.10;61.70
38866;DHT22;24612;48.984;8.394;2022-07-30T08:01:42;38.70;62.20
38866;DHT22;24612;48.984;8.394;2022-07-30T08:04:13;38.80;59.30
38866;DHT22;24612;48.984;8.394;2022-07-30T08:06:41;39.30;56.50
38866;DHT22;24612;48.984;8.394;2022-07-30T08:09:09;39.60;58.30
38866;DHT22;24612;48.984;8.394;2022-07-30T08:11:37;39.90;56.90
38866;DHT22;24612;48.984;8.394;2022-07-30T08:14:05;39.90;55.90
38866;DHT22;24612;48.984;8.394;2022-07-30T08:16:33;40.00;55.00
38866;DHT22;24612;48.984;8.394;2022-07-30T08:19:01;40.30;56.40
38866;DHT22;24612;48.984;8.394;2022-07-30T08:21:31;40.20;57.80
38866;DHT22;24612;48.984;8.394;2022-07-30T08:23:59;40.50;55.70
38866;DHT22;24612;48.984;8.394;2022-07-30T08:26:27;41.00;55.60
38866;DHT22;24612;48.984;8.394;2022-07-30T08:28:55;40.00;52.30
38866;DHT22;24612;48.984;8.394;2022-07-30T08:31:23;40.00;54.90
38866;DHT22;24612;48.984;8.394;2022-07-30T08:33:51;40.00;55.20
38866;DHT22;24612;48.984;8.394;2022-07-30T08:36:19;39.40;55.40
38866;DHT22;24612;48.984;8.394;2022-07-30T08:38:51;39.70;56.00
38866;DHT22;24612;48.984;8.394;2022-07-30T08:41:19;39.80;54.30
38866;DHT22;24612;48.984;8.394;2022-07-30T08:43:49;40.00;55.10
38866;DHT22;24612;48.984;8.394;2022-07-30T08:46:18;40.50;53.40
38866;DHT22;24612;48.984;8.394;2022-07-30T08:48:51;40.70;52.40
38866;DHT22;24612;48.984;8.394;2022-07-30T08:51:19;40.50;52.20
38866;DHT22;24612;48.984;8.394;2022-07-30T08:53:48;40.70;53.30
38866;DHT22;24612;48.984;8.394;2022-07-30T08:56:17;41.10;52.70
38866;DHT22;24612;48.984;8.394;2022-07-30T08:58:46;42.00;51.60
38866;DHT22;24612;48.984;8.394;2022-07-30T09:01:14;41.50;51.50
38866;DHT22;24612;48.984;8.394;2022-07-30T09:03:42;42.00;51.50
38866;DHT22;24612;48.984;8.394;2022-07-30T09:06:10;41.80;50.50
38866;DHT22;24612;48.984;8.394;2022-07-30T09:08:39;42.50;49.60
38866;DHT22;24612;48.984;8.394;2022-07-30T09:11:07;42.10;49.40
38866;DHT22;24612;48.984;8.394;2022-07-30T09:13:39;42.10;48.20
38866;DHT22;24612;48.984;8.394;2022-07-30T09:16:18;42.50;48.20
38866;DHT22;24612;48.984;8.394;2022-07-30T09:18:47;42.50;49.00
38866;DHT22;24612;48.984;8.394;2022-07-30T09:21:17;41.70;45.90
38866;DHT22;24612;48.984;8.394;2022-07-30T09:23:56;42.10;47.90
38866;DHT22;24612;48.984;8.394;2022-07-30T09:26:25;41.70;48.50
38866;DHT22;24612;48.984;8.394;2022-07-30T09:29:07;42.10;49.40
38866;DHT22;24612;48.984;8.394;2022-07-30T09:31:52;42.50;49.30
38866;DHT22;24612;48.984;8.394;2022-07-30T09:34:24;43.10;47.60
38866;DHT22;24612;48.984;8.394;2022-07-30T09:36:53;42.70;46.20
38866;DHT22;24612;48.984;8.394;2022-07-30T09:39:31;42.80;47.60
38866;DHT22;24612;48.984;8.394;2022-07-30T09:42:00;42.10;48.10
38866;DHT22;24612;48.984;8.394;2022-07-30T09:44:30;41.90;50.40
38866;DHT22;24612;48.984;8.394;2022-07-30T09:46:58;42.60;49.40
38866;DHT22;24612;48.984;8.394;2022-07-30T09:49:29;41.40;48.30
38866;DHT22;24612;48.984;8.394;2022-07-30T09:51:57;39.90;49.60
38866;DHT22;24612;48.984;8.394;2022-07-30T09:54:44;38.80;48.70
38866;DHT22;24612;48.984;8.394;2022-07-30T09:57:12;38.90;50.50
38866;DHT22;24612;48.984;8.394;2022-07-30T09:59:42;39.60;49.30
38866;DHT22;24612;48.984;8.394;2022-07-30T10:02:10;39.90;51.00
38866;DHT22;24612;48.984;8.394;2022-07-30T10:04:38;40.30;49.70
38866;DHT22;24612;48.984;8.394;2022-07-30T10:07:16;39.60;48.50
38866;DHT22;24612;48.984;8.394;2022-07-30T10:09:46;40.10;53.50
38866;DHT22;24612;48.984;8.394;2022-07-30T10:12:15;40.60;50.00
38866;DHT22;24612;48.984;8.394;2022-07-30T10:14:46;40.80;48.80
38866;DHT22;24612;48.984;8.394;2022-07-30T10:17:16;38.50;49.80
38866;DHT22;24612;48.984;8.394;2022-07-30T10:19:44;37.30;54.60
38866;DHT22;24612;48.984;8.394;2022-07-30T10:22:13;37.70;52.40
38866;DHT22;24612;48.984;8.394;2022-07-30T10:24:43;37.90;53.90
38866;DHT22;24612;48.984;8.394;2022-07-30T10:27:12;37.90;53.50
38866;DHT22;24612;48.984;8.394;2022-07-30T10:29:41;38.50;51.60
38866;DHT22;24612;48.984;8.394;2022-07-30T10:32:12;39.20;53.20
38866;DHT22;24612;48.984;8.394;2022-07-30T10:34:41;39.90;51.90
38866;DHT22;24612;48.984;8.394;2022-07-30T10:37:11;40.60;49.40
38866;DHT22;24612;48.984;8.394;2022-07-30T10:39:45;40.10;50.30
38866;DHT22;24612;48.984;8.394;2022-07-30T10:42:25;38.60;53.20
38866;DHT22;24612;48.984;8.394;2022-07-30T10:45:07;38.40;53.30
38866;DHT22;24612;48.984;8.394;2022-07-30T10:47:40;37.90;53.90
38866;DHT22;24612;48.984;8.394;2022-07-30T10:50:10;38.00;53.00
38866;DHT22;24612;48.984;8.394;2022-07-30T10:52:48;38.00;54.50
38866;DHT22;24612;48.984;8.394;2022-07-30T10:55:20;38.50;53.70
38866;DHT22;24612;48.984;8.394;2022-07-30T10:58:02;37.80;52.10
38866;DHT22;24612;48.984;8.394;2022-07-30T11:00:31;37.60;51.50
38866;DHT22;24612;48.984;8.394;2022-07-30T11:03:18;37.20;53.70
38866;DHT22;24612;48.984;8.394;2022-07-30T11:05:48;35.40;53.80
38866;DHT22;24612;48.984;8.394;2022-07-30T11:08:34;34.90;56.40
38866;DHT22;24612;48.984;8.394;2022-07-30T11:11:04;35.20;57.80
38866;DHT22;24612;48.984;8.394;2022-07-30T11:13:54;35.20;58.20
38866;DHT22;24612;48.984;8.394;2022-07-30T11:16:46;35.60;57.10
38866;DHT22;24612;48.984;8.394;2022-07-30T11:19:15;34.90;56.60
38866;DHT22;24612;48.984;8.394;2022-07-30T11:22:24;34.20;55.60
38866;DHT22;24612;48.984;8.394;2022-07-30T11:24:53;34.10;55.70
38866;DHT22;24612;48.984;8.394;2022-07-30T11:27:44;34.20;55.80
38866;DHT22;24612;48.984;8.394;2022-07-30T11:30:32;34.50;58.20
38866;DHT22;24612;48.984;8.394;2022-07-30T11:33:20;34.10;59.70
38866;DHT22;24612;48.984;8.394;2022-07-30T11:36:10;34.00;59.60
38866;DHT22;24612;48.984;8.394;2022-07-30T11:38:56;34.00;55.20
38866;DHT22;24612;48.984;8.394;2022-07-30T11:41:27;34.10;55.90
38866;DHT22;24612;48.984;8.394;2022-07-30T11:44:26;34.20;58.40
38866;DHT22;24612;48.984;8.394;2022-07-30T11:46:55;34.30;56.30
38866;DHT22;24612;48.984;8.394;2022-07-30T11:49:23;34.60;56.50
38866;DHT22;24612;48.984;8.394;2022-07-30T11:51:54;34.80;54.80
38866;DHT22;24612;48.984;8.394;2022-07-30T11:54:22;34.30;55.00
38866;DHT22;24612;48.984;8.394;2022-07-30T11:56:53;34.40;58.10
38866;DHT22;24612;48.984;8.394;2022-07-30T11:59:25;33.80;55.70
38866;DHT22;24612;48.984;8.394;2022-07-30T12:01:53;33.60;56.60
38866;DHT22;24612;48.984;8.394;2022-07-30T12:04:22;33.30;56.20
38866;DHT22;24612;48.984;8.394;2022-07-30T12:06:53;33.60;59.30
38866;DHT22;24612;48.984;8.394;2022-07-30T12:09:24;33.70;56.50
38866;DHT22;24612;48.984;8.394;2022-07-30T12:11:57;33.70;57.50
38866;DHT22;24612;48.984;8.394;2022-07-30T12:14:25;33.50;57.90
38866;DHT22;24612;48.984;8.394;2022-07-30T12:17:03;34.10;57.20
38866;DHT22;24612;48.984;8.394;2022-07-30T12:19:42;34.40;57.30
38866;DHT22;24612;48.984;8.394;2022-07-30T12:22:10;34.00;57.20
38866;DHT22;24612;48.984;8.394;2022-07-30T12:24:40;33.30;58.90
38866;DHT22;24612;48.984;8.394;2022-07-30T12:27:10;33.20;58.70
38866;DHT22;24612;48.984;8.394;2022-07-30T12:29:39;33.10;56.60
38866;DHT22;24612;48.984;8.394;2022-07-30T12:32:08;32.60;57.30
38866;DHT22;24612;48.984;8.394;2022-07-30T12:34:36;32.00;58.50
38866;DHT22;24612;48.984;8.394;2022-07-30T12:37:07;32.20;62.50
38866;DHT22;24612;48.984;8.394;2022-07-30T12:39:35;32.90;59.40
38866;DHT22;24612;48.984;8.394;2022-07-30T12:42:05;33.40;56.20
38866;DHT22;24612;48.984;8.394;2022-07-30T12:44:35;33.40;55.80
38866;DHT22;24612;48.984;8.394;2022-07-30T12:47:16;33.20;57.60
38866;DHT22;24612;48.984;8.394;2022-07-30T12:49:45;33.40;57.80
38866;DHT22;24612;48.984;8.394;2022-07-30T12:52:22;33.60;56.80
38866;DHT22;24612;48.984;8.394;2022-07-30T12:55:01;33.80;58.00
38866;DHT22;24612;48.984;8.394;2022-07-30T12:57:51;33.40;56.20
38866;DHT22;24612;48.984;8.394;2022-07-30T13:00:20;32.90;57.50
38866;DHT22;24612;48.984;8.394;2022-07-30T13:02:49;33.10;58.20
38866;DHT22;24612;48.984;8.394;2022-07-30T13:05:17;32.60;57.00
38866;DHT22;24612;48.984;8.394;2022-07-30T13:07:55;32.80;57.90
38866;DHT22;24612;48.984;8.394;2022-07-30T13:10:25;32.60;55.80
38866;DHT22;24612;48.984;8.394;2022-07-30T13:12:58;32.10;58.60
38866;DHT22;24612;48.984;8.394;2022-07-30T13:15:26;31.80;62.10
38866;DHT22;24612;48.984;8.394;2022-07-30T13:17:57;31.50;61.90
38866;DHT22;24612;48.984;8.394;2022-07-30T13:20:27;31.60;60.40
38866;DHT22;24612;48.984;8.394;2022-07-30T13:22:58;31.80;59.20
38866;DHT22;24612;48.984;8.394;2022-07-30T13:25:29;31.90;59.60
38866;DHT22;24612;48.984;8.394;2022-07-30T13:27:58;31.70;60.60
38866;DHT22;24612;48.984;8.394;2022-07-30T13:30:27;31.90;58.30
38866;DHT22;24612;48.984;8.394;2022-07-30T13:32:55;32.10;60.20
38866;DHT22;24612;48.984;8.394;2022-07-30T13:35:23;32.10;59.70
38866;DHT22;24612;48.984;8.394;2022-07-30T13:37:51;32.20;58.30
38866;DHT22;24612;48.984;8.394;2022-07-30T13:40:19;32.50;57.90
38866;DHT22;24612;48.984;8.394;2022-07-30T13:42:47;32.60;58.50
38866;DHT22;24612;48.984;8.394;2022-07-30T13:45:17;32.60;58.60
38866;DHT22;24612;48.984;8.394;2022-07-30T13:47:45;31.90;57.90
38866;DHT22;24612;48.984;8.394;2022-07-30T13:50:14;31.50;59.50
38866;DHT22;24612;48.984;8.394;2022-07-30T13:52:42;31.20;62.70
38866;DHT22;24612;48.984;8.394;2022-07-30T13:55:10;30.90;63.90
38866;DHT22;24612;48.984;8.394;2022-07-30T13:57:38;30.70;62.90
38866;DHT22;24612;48.984;8.394;2022-07-30T14:00:07;30.50;60.90
38866;DHT22;24612;48.984;8.394;2022-07-30T14:02:37;30.40;63.20
38866;DHT22;24612;48.984;8.394;2022-07-30T14:05:06;30.30;62.50
38866;DHT22;24612;48.984;8.394;2022-07-30T14:07:34;30.30;66.30
38866;DHT22;24612;48.984;8.394;2022-07-30T14:10:03;30.30;61.40
38866;DHT22;24612;48.984;8.394;2022-07-30T14:12:32;30.40;62.70
38866;DHT22;24612;48.984;8.394;2022-07-30T14:15:00;30.60;64.80
38866;DHT22;24612;48.984;8.394;2022-07-30T14:17:28;30.70;64.40
38866;DHT22;24612;48.984;8.394;2022-07-30T14:19:58;30.90;61.30
38866;DHT22;24612;48.984;8.394;2022-07-30T14:22:26;31.10;63.10
38866;DHT22;24612;48.984;8.394;2022-07-30T14:24:54;31.40;61.80
38866;DHT22;24612;48.984;8.394;2022-07-30T14:27:22;31.80;62.20
38866;DHT22;24612;48.984;8.394;2022-07-30T14:29:51;31.90;58.40
38866;DHT22;24612;48.984;8.394;2022-07-30T14:32:19;31.70;57.40
38866;DHT22;24612;48.984;8.394;2022-07-30T14:34:47;31.30;57.00
38866;DHT22;24612;48.984;8.394;2022-07-30T14:37:17;30.90;59.80
38866;DHT22;24612;48.984;8.394;2022-07-30T14:39:45;30.70;59.70
38866;DHT22;24612;48.984;8.394;2022-07-30T14:42:13;30.60;63.80
38866;DHT22;24612;48.984;8.394;2022-07-30T14:44:41;30.60;62.00
38866;DHT22;24612;48.984;8.394;2022-07-30T14:47:09;30.70;61.20
38866;DHT22;24612;48.984;8.394;2022-07-30T14:49:37;30.70;57.70
38866;DHT22;24612;48.984;8.394;2022-07-30T14:52:05;30.60;57.70
38866;DHT22;24612;48.984;8.394;2022-07-30T14:54:35;30.70;59.30
38866;DHT22;24612;48.984;8.394;2022-07-30T14:57:03;30.90;61.00
38866;DHT22;24612;48.984;8.394;2022-07-30T14:59:34;31.10;58.70
38866;DHT22;24612;48.984;8.394;2022-07-30T15:02:02;31.00;59.30
38866;DHT22;24612;48.984;8.394;2022-07-30T15:04:31;30.80;59.90
38866;DHT22;24612;48.984;8.394;2022-07-30T15:06:59;30.80;57.90
38866;DHT22;24612;48.984;8.394;2022-07-30T15:09:27;31.10;58.20
38866;DHT22;24612;48.984;8.394;2022-07-30T15:11:57;31.00;57.90
38866;DHT22;24612;48.984;8.394;2022-07-30T15:14:30;31.10;57.70
38866;DHT22;24612;48.984;8.394;2022-07-30T15:16:58;31.30;58.10
38866;DHT22;24612;48.984;8.394;2022-07-30T15:19:29;31.30;57.40
38866;DHT22;24612;48.984;8.394;2022-07-30T15:21:57;31.30;57.90
38866;DHT22;24612;48.984;8.394;2022-07-30T15:24:27;31.40;56.60
38866;DHT22;24612;48.984;8.394;2022-07-30T15:26:57;30.90;59.20
38866;DHT22;24612;48.984;8.394;2022-07-30T15:29:25;30.50;59.20
38866;DHT22;24612;48.984;8.394;2022-07-30T15:31:55;30.50;59.30
38866;DHT22;24612;48.984;8.394;2022-07-30T15:34:25;30.50;58.90
38866;DHT22;24612;48.984;8.394;2022-07-30T15:36:54;30.60;58.70
38866;DHT22;24612;48.984;8.394;2022-07-30T15:39:22;30.60;59.50
38866;DHT22;24612;48.984;8.394;2022-07-30T15:41:50;30.50;58.10
38866;DHT22;24612;48.984;8.394;2022-07-30T15:44:21;30.50;57.60
38866;DHT22;24612;48.984;8.394;2022-07-30T15:46:49;30.30;59.40
38866;DHT22;24612;48.984;8.394;2022-07-30T15:49:17;30.10;59.30